sensor_id;sensor_type;location;lat;lon;timestamp;P1;durP1;ratioP1;P2;durP2;ratioP2
75165;SDS011;63747;48.042;10.088;2023-02-01T00:01:05;7.73;;;5.03;;
75165;SDS011;63747;48.042;10.088;2023-02-01T00:04:07;9.15;;;6.35;;
75165;SDS011;63747;48.042;10.088;2023-02-01T00:07:08;8.73;;;6.33;;
75165;SDS011;63747;48.042;10.088;2023-02-01T00:10:11;8.52;;;6.13;;
75165;SDS011;63747;48.042;10.088;2023-02-01T00:13:13;6.70;;;5.50;;
75165;SDS011;63747;48.042;10.088;2023-02-01T00:16:18;9.02;;;6.47;;
75165;SDS011;63747;48.042;10.088;2023-02-01T00:19:23;8.68;;;5.35;;
75165;SDS011;63747;48.042;10.088;2023-02-01T00:22:24;8.33;;;5.70;;
75165;SDS011;63747;48.042;10.088;2023-02-01T00:25:25;9.63;;;6.40;;
75165;SDS011;63747;48.042;10.088;2023-02-01T00:28:26;8.00;;;5.77;;
75165;SDS011;63747;48.042;10.088;2023-02-01T00:31:27;11.85;;;6.28;;
75165;SDS011;63747;48.042;10.088;2023-02-01T00:34:29;8.60;;;6.03;;
75165;SDS011;63747;48.042;10.088;2023-02-01T00:37:35;8.30;;;6.32;;
75165;SDS011;63747;48.042;10.088;2023-02-01T00:40:36;9.30;;;6.93;;
75165;SDS011;63747;48.042;10.088;2023-02-01T00:43:37;10.30;;;6.80;;
75165;SDS011;63747;48.042;10.088;2023-02-01T00:46:39;9.88;;;6.85;;
75165;SDS011;63747;48.042;10.088;2023-02-01T00:49:41;11.63;;;7.22;;
75165;SDS011;63747;48.042;10.088;2023-02-01T00:52:42;11.10;;;6.88;;
75165;SDS011;63747;48.042;10.088;2023-02-01T00:55:46;10.23;;;6.50;;
75165;SDS011;63747;48.042;10.088;2023-02-01T00:59:07;10.70;;;6.47;;
75165;SDS011;63747;48.042;10.088;2023-02-01T01:02:12;11.00;;;6.25;;
75165;SDS011;63747;48.042;10.088;2023-02-01T01:05:14;11.07;;;6.95;;
75165;SDS011;63747;48.042;10.088;2023-02-01T01:08:15;10.40;;;6.47;;
75165;SDS011;63747;48.042;10.088;2023-02-01T01:11:17;11.48;;;7.00;;
75165;SDS011;63747;48.042;10.088;2023-02-01T01:14:20;9.05;;;7.07;;
75165;SDS011;63747;48.042;10.088;2023-02-01T01:17:24;10.57;;;6.37;;
75165;SDS011;63747;48.042;10.088;2023-02-01T01:20:25;11.73;;;7.00;;
75165;SDS011;63747;48.042;10.088;2023-02-01T01:23:27;12.17;;;7.10;;
75165;SDS011;63747;48.042;10.088;2023-02-01T01:26:29;9.20;;;6.15;;
75165;SDS011;63747;48.042;10.088;2023-02-01T01:29:30;10.07;;;6.50;;
75165;SDS011;63747;48.042;10.088;2023-02-01T01:32:31;10.07;;;6.60;;
75165;SDS011;63747;48.042;10.088;2023-02-01T01:35:32;7.87;;;5.77;;
75165;SDS011;63747;48.042;10.088;2023-02-01T01:38:34;8.25;;;6.28;;
75165;SDS011;63747;48.042;10.088;2023-02-01T01:41:35;8.63;;;6.40;;
75165;SDS011;63747;48.042;10.088;2023-02-01T01:48:04;9.77;;;6.57;;
75165;SDS011;63747;48.042;10.088;2023-02-01T01:51:10;10.05;;;6.82;;
75165;SDS011;63747;48.042;10.088;2023-02-01T01:54:17;8.98;;;6.05;;
75165;SDS011;63747;48.042;10.088;2023-02-01T01:57:29;9.50;;;6.57;;
75165;SDS011;63747;48.042;10.088;2023-02-01T02:00:36;8.27;;;6.07;;
75165;SDS011;63747;48.042;10.088;2023-02-01T02:03:42;7.60;;;6.03;;
75165;SDS011;63747;48.042;10.088;2023-02-01T02:06:55;10.00;;;6.38;;
75165;SDS011;63747;48.042;10.088;2023-02-01T02:09:59;10.10;;;5.93;;
75165;SDS011;63747;48.042;10.088;2023-02-01T02:13:01;9.00;;;5.82;;
75165;SDS011;63747;48.042;10.088;2023-02-01T02:16:18;8.27;;;6.20;;
75165;SDS011;63747;48.042;10.088;2023-02-01T02:23:09;9.48;;;6.45;;
75165;SDS011;63747;48.042;10.088;2023-02-01T02:29:54;8.05;;;5.85;;
75165;SDS011;63747;48.042;10.088;2023-02-01T02:43:09;6.88;;;5.13;;
75165;SDS011;63747;48.042;10.088;2023-02-01T02:46:35;7.07;;;5.30;;
75165;SDS011;63747;48.042;10.088;2023-02-01T02:50:02;7.95;;;5.65;;
75165;SDS011;63747;48.042;10.088;2023-02-01T02:53:46;6.38;;;4.85;;
75165;SDS011;63747;48.042;10.088;2023-02-01T03:00:56;7.10;;;4.95;;
75165;SDS011;63747;48.042;10.088;2023-02-01T03:04:16;8.07;;;5.78;;
75165;SDS011;63747;48.042;10.088;2023-02-01T03:11:06;7.93;;;5.20;;
75165;SDS011;63747;48.042;10.088;2023-02-01T03:14:11;6.88;;;5.30;;
75165;SDS011;63747;48.042;10.088;2023-02-01T03:17:17;8.57;;;5.38;;
75165;SDS011;63747;48.042;10.088;2023-02-01T03:20:26;8.50;;;4.90;;
75165;SDS011;63747;48.042;10.088;2023-02-01T03:23:30;6.47;;;5.00;;
75165;SDS011;63747;48.042;10.088;2023-02-01T03:26:34;9.00;;;5.93;;
75165;SDS011;63747;48.042;10.088;2023-02-01T03:30:01;7.97;;;5.65;;
75165;SDS011;63747;48.042;10.088;2023-02-01T03:33:17;8.10;;;5.13;;
75165;SDS011;63747;48.042;10.088;2023-02-01T03:36:26;7.75;;;4.68;;
75165;SDS011;63747;48.042;10.088;2023-02-01T03:39:32;7.15;;;5.05;;
75165;SDS011;63747;48.042;10.088;2023-02-01T03:42:39;6.75;;;4.93;;
75165;SDS011;63747;48.042;10.088;2023-02-01T03:45:46;7.53;;;5.22;;
75165;SDS011;63747;48.042;10.088;2023-02-01T03:48:52;6.65;;;5.07;;
75165;SDS011;63747;48.042;10.088;2023-02-01T03:51:54;8.40;;;5.57;;
75165;SDS011;63747;48.042;10.088;2023-02-01T03:54:59;6.13;;;4.88;;
75165;SDS011;63747;48.042;10.088;2023-02-01T03:58:04;8.40;;;5.18;;
75165;SDS011;63747;48.042;10.088;2023-02-01T04:01:09;7.18;;;5.30;;
75165;SDS011;63747;48.042;10.088;2023-02-01T04:04:10;6.47;;;5.37;;
75165;SDS011;63747;48.042;10.088;2023-02-01T04:07:10;7.63;;;4.97;;
75165;SDS011;63747;48.042;10.088;2023-02-01T04:10:12;6.95;;;5.38;;
75165;SDS011;63747;48.042;10.088;2023-02-01T04:13:13;9.30;;;5.50;;
75165;SDS011;63747;48.042;10.088;2023-02-01T04:16:14;7.40;;;5.37;;
75165;SDS011;63747;48.042;10.088;2023-02-01T04:19:14;7.50;;;5.27;;
75165;SDS011;63747;48.042;10.088;2023-02-01T04:22:15;6.83;;;4.67;;
75165;SDS011;63747;48.042;10.088;2023-02-01T04:25:16;5.97;;;4.30;;
75165;SDS011;63747;48.042;10.088;2023-02-01T04:28:17;9.90;;;5.20;;
75165;SDS011;63747;48.042;10.088;2023-02-01T04:31:17;6.20;;;4.37;;
75165;SDS011;63747;48.042;10.088;2023-02-01T04:34:25;6.97;;;4.72;;
75165;SDS011;63747;48.042;10.088;2023-02-01T04:37:26;7.90;;;5.07;;
75165;SDS011;63747;48.042;10.088;2023-02-01T04:40:27;6.37;;;4.53;;
75165;SDS011;63747;48.042;10.088;2023-02-01T04:43:27;6.93;;;5.33;;
75165;SDS011;63747;48.042;10.088;2023-02-01T04:46:28;6.80;;;5.00;;
75165;SDS011;63747;48.042;10.088;2023-02-01T04:49:29;6.47;;;4.77;;
75165;SDS011;63747;48.042;10.088;2023-02-01T04:52:29;6.10;;;4.83;;
75165;SDS011;63747;48.042;10.088;2023-02-01T04:55:30;7.80;;;5.43;;
75165;SDS011;63747;48.042;10.088;2023-02-01T04:58:31;9.20;;;5.30;;
75165;SDS011;63747;48.042;10.088;2023-02-01T05:01:31;11.03;;;5.90;;
75165;SDS011;63747;48.042;10.088;2023-02-01T05:04:32;7.80;;;5.87;;
75165;SDS011;63747;48.042;10.088;2023-02-01T05:07:33;6.80;;;5.40;;
75165;SDS011;63747;48.042;10.088;2023-02-01T05:10:33;8.47;;;5.93;;
75165;SDS011;63747;48.042;10.088;2023-02-01T05:13:34;8.13;;;6.00;;
75165;SDS011;63747;48.042;10.088;2023-02-01T05:16:50;9.60;;;6.63;;
75165;SDS011;63747;48.042;10.088;2023-02-01T05:19:51;8.07;;;6.07;;
75165;SDS011;63747;48.042;10.088;2023-02-01T05:22:51;8.60;;;5.87;;
75165;SDS011;63747;48.042;10.088;2023-02-01T05:25:52;8.07;;;6.03;;
75165;SDS011;63747;48.042;10.088;2023-02-01T05:28:53;8.80;;;6.67;;
75165;SDS011;63747;48.042;10.088;2023-02-01T05:31:53;8.93;;;6.70;;
75165;SDS011;63747;48.042;10.088;2023-02-01T05:34:54;9.33;;;6.17;;
75165;SDS011;63747;48.042;10.088;2023-02-01T05:37:55;10.63;;;6.40;;
75165;SDS011;63747;48.042;10.088;2023-02-01T05:40:56;9.90;;;7.13;;
75165;SDS011;63747;48.042;10.088;2023-02-01T05:43:56;10.43;;;6.67;;
75165;SDS011;63747;48.042;10.088;2023-02-01T05:46:57;10.10;;;6.97;;
75165;SDS011;63747;48.042;10.088;2023-02-01T05:49:58;9.63;;;6.50;;
75165;SDS011;63747;48.042;10.088;2023-02-01T05:52:58;8.93;;;6.63;;
75165;SDS011;63747;48.042;10.088;2023-02-01T05:55:59;8.60;;;6.37;;
75165;SDS011;63747;48.042;10.088;2023-02-01T05:59:00;8.35;;;6.32;;
75165;SDS011;63747;48.042;10.088;2023-02-01T06:02:01;9.30;;;6.40;;
75165;SDS011;63747;48.042;10.088;2023-02-01T06:05:01;10.60;;;6.87;;
75165;SDS011;63747;48.042;10.088;2023-02-01T06:08:02;8.10;;;6.27;;
75165;SDS011;63747;48.042;10.088;2023-02-01T06:11:03;9.07;;;6.10;;
75165;SDS011;63747;48.042;10.088;2023-02-01T06:17:07;9.20;;;6.25;;
75165;SDS011;63747;48.042;10.088;2023-02-01T06:20:08;10.57;;;6.50;;
75165;SDS011;63747;48.042;10.088;2023-02-01T06:23:10;10.70;;;6.95;;
75165;SDS011;63747;48.042;10.088;2023-02-01T06:26:11;9.30;;;6.93;;
75165;SDS011;63747;48.042;10.088;2023-02-01T06:29:12;7.63;;;6.37;;
75165;SDS011;63747;48.042;10.088;2023-02-01T06:32:12;8.30;;;6.28;;
75165;SDS011;63747;48.042;10.088;2023-02-01T06:35:13;8.83;;;6.33;;
75165;SDS011;63747;48.042;10.088;2023-02-01T06:38:15;9.80;;;6.65;;
75165;SDS011;63747;48.042;10.088;2023-02-01T06:41:17;10.95;;;6.70;;
75165;SDS011;63747;48.042;10.088;2023-02-01T06:44:20;9.25;;;6.95;;
75165;SDS011;63747;48.042;10.088;2023-02-01T06:47:21;10.50;;;6.80;;
75165;SDS011;63747;48.042;10.088;2023-02-01T06:50:21;8.40;;;6.63;;
75165;SDS011;63747;48.042;10.088;2023-02-01T06:53:22;9.10;;;6.53;;
75165;SDS011;63747;48.042;10.088;2023-02-01T06:56:23;10.00;;;7.33;;
75165;SDS011;63747;48.042;10.088;2023-02-01T06:59:25;9.45;;;7.68;;
75165;SDS011;63747;48.042;10.088;2023-02-01T07:02:25;10.73;;;6.83;;
75165;SDS011;63747;48.042;10.088;2023-02-01T07:05:26;8.80;;;7.43;;
75165;SDS011;63747;48.042;10.088;2023-02-01T07:08:27;9.87;;;7.63;;
75165;SDS011;63747;48.042;10.088;2023-02-01T07:11:28;9.18;;;7.13;;
75165;SDS011;63747;48.042;10.088;2023-02-01T07:17:31;9.15;;;6.57;;
75165;SDS011;63747;48.042;10.088;2023-02-01T07:20:31;9.33;;;7.17;;
75165;SDS011;63747;48.042;10.088;2023-02-01T07:23:32;10.37;;;6.50;;
75165;SDS011;63747;48.042;10.088;2023-02-01T07:26:33;11.77;;;7.33;;
75165;SDS011;63747;48.042;10.088;2023-02-01T07:29:33;10.13;;;6.90;;
75165;SDS011;63747;48.042;10.088;2023-02-01T07:32:34;9.03;;;6.57;;
75165;SDS011;63747;48.042;10.088;2023-02-01T07:35:35;9.73;;;7.23;;
75165;SDS011;63747;48.042;10.088;2023-02-01T07:38:35;8.07;;;6.37;;
75165;SDS011;63747;48.042;10.088;2023-02-01T07:41:36;10.63;;;6.43;;
75165;SDS011;63747;48.042;10.088;2023-02-01T07:44:36;8.43;;;5.90;;
75165;SDS011;63747;48.042;10.088;2023-02-01T07:47:37;9.17;;;6.97;;
75165;SDS011;63747;48.042;10.088;2023-02-01T07:50:38;8.73;;;6.17;;
75165;SDS011;63747;48.042;10.088;2023-02-01T07:53:38;9.40;;;6.13;;
75165;SDS011;63747;48.042;10.088;2023-02-01T07:56:39;7.50;;;6.10;;
75165;SDS011;63747;48.042;10.088;2023-02-01T07:59:40;8.97;;;6.23;;
75165;SDS011;63747;48.042;10.088;2023-02-01T08:03:01;8.80;;;5.78;;
75165;SDS011;63747;48.042;10.088;2023-02-01T08:06:05;9.88;;;5.93;;
75165;SDS011;63747;48.042;10.088;2023-02-01T08:09:06;8.02;;;5.72;;
75165;SDS011;63747;48.042;10.088;2023-02-01T08:12:11;7.32;;;5.47;;
75165;SDS011;63747;48.042;10.088;2023-02-01T08:15:11;8.17;;;5.57;;
75165;SDS011;63747;48.042;10.088;2023-02-01T08:18:12;9.63;;;6.03;;
75165;SDS011;63747;48.042;10.088;2023-02-01T08:21:17;7.43;;;5.60;;
75165;SDS011;63747;48.042;10.088;2023-02-01T08:24:20;6.50;;;5.32;;
75165;SDS011;63747;48.042;10.088;2023-02-01T08:27:21;7.60;;;5.45;;
75165;SDS011;63747;48.042;10.088;2023-02-01T08:30:22;6.30;;;5.00;;
75165;SDS011;63747;48.042;10.088;2023-02-01T08:33:22;7.17;;;5.27;;
75165;SDS011;63747;48.042;10.088;2023-02-01T08:36:23;8.27;;;4.83;;
75165;SDS011;63747;48.042;10.088;2023-02-01T08:39:25;9.68;;;6.15;;
75165;SDS011;63747;48.042;10.088;2023-02-01T08:42:26;7.28;;;5.47;;
75165;SDS011;63747;48.042;10.088;2023-02-01T08:45:46;8.00;;;5.65;;
75165;SDS011;63747;48.042;10.088;2023-02-01T08:48:47;7.93;;;5.37;;
75165;SDS011;63747;48.042;10.088;2023-02-01T08:51:48;6.00;;;4.72;;
75165;SDS011;63747;48.042;10.088;2023-02-01T08:54:48;6.87;;;4.47;;
75165;SDS011;63747;48.042;10.088;2023-02-01T08:57:49;5.93;;;4.80;;
75165;SDS011;63747;48.042;10.088;2023-02-01T09:00:50;5.83;;;4.57;;
75165;SDS011;63747;48.042;10.088;2023-02-01T09:03:51;6.13;;;4.80;;
75165;SDS011;63747;48.042;10.088;2023-02-01T09:06:51;5.60;;;4.60;;
75165;SDS011;63747;48.042;10.088;2023-02-01T09:09:55;6.68;;;4.43;;
75165;SDS011;63747;48.042;10.088;2023-02-01T09:12:56;10.03;;;5.00;;
75165;SDS011;63747;48.042;10.088;2023-02-01T09:15:57;8.10;;;5.53;;
75165;SDS011;63747;48.042;10.088;2023-02-01T09:18:59;6.75;;;4.60;;
75165;SDS011;63747;48.042;10.088;2023-02-01T09:22:00;7.33;;;4.80;;
75165;SDS011;63747;48.042;10.088;2023-02-01T09:25:01;7.33;;;4.83;;
75165;SDS011;63747;48.042;10.088;2023-02-01T09:28:01;8.47;;;5.07;;
75165;SDS011;63747;48.042;10.088;2023-02-01T09:31:03;7.78;;;4.50;;
75165;SDS011;63747;48.042;10.088;2023-02-01T09:34:04;5.97;;;4.73;;
75165;SDS011;63747;48.042;10.088;2023-02-01T09:40:08;6.78;;;4.88;;
75165;SDS011;63747;48.042;10.088;2023-02-01T09:46:55;6.13;;;4.00;;
75165;SDS011;63747;48.042;10.088;2023-02-01T09:49:59;5.80;;;3.95;;
75165;SDS011;63747;48.042;10.088;2023-02-01T09:53:09;7.00;;;4.68;;
75165;SDS011;63747;48.042;10.088;2023-02-01T09:56:20;10.15;;;5.38;;
75165;SDS011;63747;48.042;10.088;2023-02-01T10:02:35;7.53;;;5.30;;
75165;SDS011;63747;48.042;10.088;2023-02-01T10:06:14;8.13;;;5.60;;
75165;SDS011;63747;48.042;10.088;2023-02-01T10:09:14;7.00;;;5.32;;
75165;SDS011;63747;48.042;10.088;2023-02-01T10:26:31;7.20;;;5.53;;
75165;SDS011;63747;48.042;10.088;2023-02-01T10:29:43;6.18;;;4.45;;
75165;SDS011;63747;48.042;10.088;2023-02-01T10:32:45;7.30;;;5.80;;
75165;SDS011;63747;48.042;10.088;2023-02-01T10:35:52;7.50;;;5.78;;
75165;SDS011;63747;48.042;10.088;2023-02-01T10:38:59;7.63;;;5.05;;
75165;SDS011;63747;48.042;10.088;2023-02-01T10:42:00;7.85;;;5.38;;
75165;SDS011;63747;48.042;10.088;2023-02-01T10:45:02;6.27;;;4.37;;
75165;SDS011;63747;48.042;10.088;2023-02-01T10:48:04;8.48;;;5.30;;
75165;SDS011;63747;48.042;10.088;2023-02-01T10:51:06;10.43;;;5.95;;
75165;SDS011;63747;48.042;10.088;2023-02-01T10:54:18;6.57;;;5.22;;
75165;SDS011;63747;48.042;10.088;2023-02-01T10:57:22;8.90;;;5.57;;
75165;SDS011;63747;48.042;10.088;2023-02-01T11:00:25;6.30;;;4.93;;
75165;SDS011;63747;48.042;10.088;2023-02-01T11:03:40;8.85;;;5.75;;
75165;SDS011;63747;48.042;10.088;2023-02-01T11:06:46;7.32;;;4.97;;
75165;SDS011;63747;48.042;10.088;2023-02-01T11:09:52;6.63;;;3.58;;
75165;SDS011;63747;48.042;10.088;2023-02-01T11:12:55;7.05;;;4.70;;
75165;SDS011;63747;48.042;10.088;2023-02-01T11:15:55;6.53;;;4.03;;
75165;SDS011;63747;48.042;10.088;2023-02-01T11:18:57;7.72;;;4.57;;
75165;SDS011;63747;48.042;10.088;2023-02-01T11:25:01;8.35;;;4.68;;
75165;SDS011;63747;48.042;10.088;2023-02-01T11:28:10;6.63;;;4.57;;
75165;SDS011;63747;48.042;10.088;2023-02-01T11:31:11;6.30;;;4.53;;
75165;SDS011;63747;48.042;10.088;2023-02-01T11:34:16;5.07;;;4.05;;
75165;SDS011;63747;48.042;10.088;2023-02-01T11:37:20;5.15;;;3.75;;
75165;SDS011;63747;48.042;10.088;2023-02-01T11:40:29;5.20;;;3.72;;
75165;SDS011;63747;48.042;10.088;2023-02-01T11:43:35;5.70;;;4.13;;
75165;SDS011;63747;48.042;10.088;2023-02-01T11:46:36;6.27;;;4.23;;
75165;SDS011;63747;48.042;10.088;2023-02-01T11:49:37;7.70;;;4.18;;
75165;SDS011;63747;48.042;10.088;2023-02-01T11:52:50;4.32;;;3.50;;
75165;SDS011;63747;48.042;10.088;2023-02-01T11:56:11;5.15;;;4.13;;
75165;SDS011;63747;48.042;10.088;2023-02-01T12:09:42;5.97;;;3.72;;
75165;SDS011;63747;48.042;10.088;2023-02-01T12:13:02;4.55;;;3.17;;
75165;SDS011;63747;48.042;10.088;2023-02-01T12:19:40;5.43;;;3.97;;
75165;SDS011;63747;48.042;10.088;2023-02-01T12:29:29;6.45;;;4.07;;
75165;SDS011;63747;48.042;10.088;2023-02-01T12:32:41;4.85;;;4.00;;
75165;SDS011;63747;48.042;10.088;2023-02-01T12:36:31;6.07;;;4.00;;
75165;SDS011;63747;48.042;10.088;2023-02-01T12:39:47;4.95;;;3.08;;
75165;SDS011;63747;48.042;10.088;2023-02-01T12:46:23;6.10;;;3.45;;
75165;SDS011;63747;48.042;10.088;2023-02-01T12:52:47;4.60;;;2.55;;
75165;SDS011;63747;48.042;10.088;2023-02-01T12:55:53;5.00;;;2.92;;
75165;SDS011;63747;48.042;10.088;2023-02-01T12:58:58;4.63;;;2.72;;
75165;SDS011;63747;48.042;10.088;2023-02-01T13:02:15;6.97;;;3.33;;
75165;SDS011;63747;48.042;10.088;2023-02-01T13:05:24;7.15;;;3.28;;
75165;SDS011;63747;48.042;10.088;2023-02-01T13:12:51;4.95;;;2.90;;
75165;SDS011;63747;48.042;10.088;2023-02-01T13:15:38;5.57;;;2.67;;
75165;SDS011;63747;48.042;10.088;2023-02-01T13:18:43;4.45;;;2.25;;
75165;SDS011;63747;48.042;10.088;2023-02-01T13:21:50;4.18;;;2.60;;
75165;SDS011;63747;48.042;10.088;2023-02-01T13:25:40;5.05;;;2.50;;
75165;SDS011;63747;48.042;10.088;2023-02-01T13:35:29;5.38;;;2.88;;
75165;SDS011;63747;48.042;10.088;2023-02-01T13:45:27;7.35;;;2.78;;
75165;SDS011;63747;48.042;10.088;2023-02-01T13:51:48;4.72;;;2.30;;
75165;SDS011;63747;48.042;10.088;2023-02-01T13:55:00;5.30;;;2.80;;
75165;SDS011;63747;48.042;10.088;2023-02-01T14:14:48;5.63;;;2.47;;
75165;SDS011;63747;48.042;10.088;2023-02-01T14:17:49;7.50;;;2.77;;
75165;SDS011;63747;48.042;10.088;2023-02-01T14:20:50;7.90;;;3.03;;
75165;SDS011;63747;48.042;10.088;2023-02-01T14:26:53;5.57;;;1.73;;
75165;SDS011;63747;48.042;10.088;2023-02-01T14:29:57;8.85;;;3.90;;
75165;SDS011;63747;48.042;10.088;2023-02-01T14:33:10;6.03;;;2.22;;
75165;SDS011;63747;48.042;10.088;2023-02-01T14:36:18;4.07;;;2.03;;
75165;SDS011;63747;48.042;10.088;2023-02-01T14:39:23;4.10;;;1.53;;
75165;SDS011;63747;48.042;10.088;2023-02-01T14:48:56;7.63;;;2.22;;
75165;SDS011;63747;48.042;10.088;2023-02-01T14:51:57;7.97;;;2.53;;
75165;SDS011;63747;48.042;10.088;2023-02-01T14:55:00;6.85;;;2.80;;
75165;SDS011;63747;48.042;10.088;2023-02-01T14:58:09;5.95;;;2.45;;
75165;SDS011;63747;48.042;10.088;2023-02-01T15:04:27;8.80;;;2.78;;
75165;SDS011;63747;48.042;10.088;2023-02-01T15:07:28;7.67;;;2.80;;
75165;SDS011;63747;48.042;10.088;2023-02-01T15:10:30;6.53;;;2.83;;
75165;SDS011;63747;48.042;10.088;2023-02-01T15:13:32;7.68;;;2.83;;
75165;SDS011;63747;48.042;10.088;2023-02-01T15:16:33;10.00;;;3.27;;
75165;SDS011;63747;48.042;10.088;2023-02-01T15:19:33;13.40;;;3.03;;
75165;SDS011;63747;48.042;10.088;2023-02-01T15:22:34;9.07;;;2.90;;
75165;SDS011;63747;48.042;10.088;2023-02-01T15:25:36;7.28;;;2.70;;
75165;SDS011;63747;48.042;10.088;2023-02-01T15:28:38;6.47;;;2.70;;
75165;SDS011;63747;48.042;10.088;2023-02-01T15:31:40;3.83;;;2.10;;
75165;SDS011;63747;48.042;10.088;2023-02-01T15:34:48;10.82;;;2.80;;
75165;SDS011;63747;48.042;10.088;2023-02-01T15:37:50;8.55;;;2.70;;
75165;SDS011;63747;48.042;10.088;2023-02-01T15:47:05;9.40;;;3.03;;
75165;SDS011;63747;48.042;10.088;2023-02-01T15:50:12;7.30;;;2.50;;
75165;SDS011;63747;48.042;10.088;2023-02-01T15:53:15;8.50;;;2.80;;
75165;SDS011;63747;48.042;10.088;2023-02-01T15:56:33;9.40;;;2.60;;
75165;SDS011;63747;48.042;10.088;2023-02-01T15:59:41;9.98;;;2.58;;
75165;SDS011;63747;48.042;10.088;2023-02-01T16:02:54;9.55;;;2.55;;
75165;SDS011;63747;48.042;10.088;2023-02-01T16:06:00;11.27;;;3.00;;
75165;SDS011;63747;48.042;10.088;2023-02-01T16:09:05;8.27;;;2.60;;
75165;SDS011;63747;48.042;10.088;2023-02-01T16:12:22;11.93;;;2.38;;
75165;SDS011;63747;48.042;10.088;2023-02-01T16:15:29;8.15;;;2.28;;
75165;SDS011;63747;48.042;10.088;2023-02-01T16:18:30;5.60;;;2.25;;
75165;SDS011;63747;48.042;10.088;2023-02-01T16:21:31;6.97;;;2.27;;
75165;SDS011;63747;48.042;10.088;2023-02-01T16:24:31;11.03;;;3.30;;
75165;SDS011;63747;48.042;10.088;2023-02-01T16:27:33;7.70;;;2.50;;
75165;SDS011;63747;48.042;10.088;2023-02-01T16:30:34;36.50;;;22.93;;
75165;SDS011;63747;48.042;10.088;2023-02-01T16:33:35;16.27;;;6.13;;
75165;SDS011;63747;48.042;10.088;2023-02-01T16:36:36;13.07;;;6.43;;
75165;SDS011;63747;48.042;10.088;2023-02-01T16:39:37;8.33;;;3.43;;
75165;SDS011;63747;48.042;10.088;2023-02-01T16:42:38;8.43;;;3.47;;
75165;SDS011;63747;48.042;10.088;2023-02-01T16:45:39;8.87;;;2.33;;
75165;SDS011;63747;48.042;10.088;2023-02-01T16:48:40;9.07;;;2.90;;
75165;SDS011;63747;48.042;10.088;2023-02-01T16:51:44;36.83;;;16.25;;
75165;SDS011;63747;48.042;10.088;2023-02-01T16:54:45;30.20;;;14.67;;
75165;SDS011;63747;48.042;10.088;2023-02-01T16:57:46;38.58;;;24.05;;
75165;SDS011;63747;48.042;10.088;2023-02-01T17:00:48;15.45;;;5.68;;
75165;SDS011;63747;48.042;10.088;2023-02-01T17:03:50;15.93;;;7.35;;
75165;SDS011;63747;48.042;10.088;2023-02-01T17:06:51;51.30;;;26.33;;
75165;SDS011;63747;48.042;10.088;2023-02-01T17:09:52;116.20;;;64.80;;
75165;SDS011;63747;48.042;10.088;2023-02-01T17:12:53;58.28;;;29.85;;
75165;SDS011;63747;48.042;10.088;2023-02-01T17:15:58;30.65;;;16.05;;
75165;SDS011;63747;48.042;10.088;2023-02-01T17:19:03;9.80;;;2.80;;
75165;SDS011;63747;48.042;10.088;2023-02-01T17:22:07;5.63;;;2.17;;
75165;SDS011;63747;48.042;10.088;2023-02-01T17:25:14;10.52;;;2.90;;
75165;SDS011;63747;48.042;10.088;2023-02-01T17:28:16;10.00;;;3.58;;
75165;SDS011;63747;48.042;10.088;2023-02-01T17:31:17;11.37;;;2.63;;
75165;SDS011;63747;48.042;10.088;2023-02-01T17:34:18;12.73;;;3.77;;
75165;SDS011;63747;48.042;10.088;2023-02-01T17:37:24;8.50;;;2.33;;
75165;SDS011;63747;48.042;10.088;2023-02-01T17:40:29;11.00;;;3.13;;
75165;SDS011;63747;48.042;10.088;2023-02-01T17:43:30;13.87;;;3.30;;
75165;SDS011;63747;48.042;10.088;2023-02-01T17:46:31;10.07;;;2.60;;
75165;SDS011;63747;48.042;10.088;2023-02-01T17:49:31;13.53;;;3.10;;
75165;SDS011;63747;48.042;10.088;2023-02-01T17:52:34;7.93;;;2.10;;
75165;SDS011;63747;48.042;10.088;2023-02-01T17:55:36;7.83;;;2.37;;
75165;SDS011;63747;48.042;10.088;2023-02-01T17:58:39;6.80;;;2.40;;
75165;SDS011;63747;48.042;10.088;2023-02-01T18:01:40;10.43;;;3.43;;
75165;SDS011;63747;48.042;10.088;2023-02-01T18:04:41;13.05;;;2.95;;
75165;SDS011;63747;48.042;10.088;2023-02-01T18:07:42;10.37;;;2.37;;
75165;SDS011;63747;48.042;10.088;2023-02-01T18:10:43;11.97;;;2.57;;
75165;SDS011;63747;48.042;10.088;2023-02-01T18:13:44;9.70;;;2.57;;
75165;SDS011;63747;48.042;10.088;2023-02-01T18:16:45;13.95;;;5.40;;
75165;SDS011;63747;48.042;10.088;2023-02-01T18:19:46;12.80;;;7.17;;
75165;SDS011;63747;48.042;10.088;2023-02-01T18:22:47;8.03;;;2.60;;
75165;SDS011;63747;48.042;10.088;2023-02-01T18:25:49;11.45;;;2.88;;
75165;SDS011;63747;48.042;10.088;2023-02-01T18:28:51;9.23;;;2.80;;
75165;SDS011;63747;48.042;10.088;2023-02-01T18:31:52;12.87;;;3.37;;
75165;SDS011;63747;48.042;10.088;2023-02-01T18:34:52;10.30;;;3.00;;
75165;SDS011;63747;48.042;10.088;2023-02-01T18:37:53;13.07;;;2.80;;
75165;SDS011;63747;48.042;10.088;2023-02-01T18:40:55;9.13;;;2.63;;
75165;SDS011;63747;48.042;10.088;2023-02-01T18:44:00;9.48;;;2.30;;
75165;SDS011;63747;48.042;10.088;2023-02-01T18:47:00;9.40;;;2.70;;
75165;SDS011;63747;48.042;10.088;2023-02-01T18:50:01;9.27;;;2.60;;
75165;SDS011;63747;48.042;10.088;2023-02-01T18:53:04;9.10;;;2.43;;
75165;SDS011;63747;48.042;10.088;2023-02-01T18:56:08;13.50;;;3.00;;
75165;SDS011;63747;48.042;10.088;2023-02-01T18:59:12;7.15;;;2.65;;
75165;SDS011;63747;48.042;10.088;2023-02-01T19:02:12;11.07;;;2.57;;
75165;SDS011;63747;48.042;10.088;2023-02-01T19:05:14;8.90;;;2.80;;
75165;SDS011;63747;48.042;10.088;2023-02-01T19:08:14;7.97;;;2.55;;
75165;SDS011;63747;48.042;10.088;2023-02-01T19:11:15;8.13;;;2.27;;
75165;SDS011;63747;48.042;10.088;2023-02-01T19:14:16;9.90;;;2.87;;
75165;SDS011;63747;48.042;10.088;2023-02-01T19:17:16;12.07;;;2.57;;
75165;SDS011;63747;48.042;10.088;2023-02-01T19:20:18;10.23;;;2.87;;
75165;SDS011;63747;48.042;10.088;2023-02-01T19:23:20;10.23;;;2.88;;
75165;SDS011;63747;48.042;10.088;2023-02-01T19:26:21;9.43;;;3.20;;
75165;SDS011;63747;48.042;10.088;2023-02-01T19:29:22;10.80;;;3.20;;
75165;SDS011;63747;48.042;10.088;2023-02-01T19:32:23;10.27;;;2.63;;
75165;SDS011;63747;48.042;10.088;2023-02-01T19:35:23;10.00;;;2.40;;
75165;SDS011;63747;48.042;10.088;2023-02-01T19:38:24;12.57;;;2.50;;
75165;SDS011;63747;48.042;10.088;2023-02-01T19:41:25;5.27;;;1.97;;
75165;SDS011;63747;48.042;10.088;2023-02-01T19:44:25;8.40;;;2.70;;
75165;SDS011;63747;48.042;10.088;2023-02-01T19:47:29;9.88;;;2.28;;
75165;SDS011;63747;48.042;10.088;2023-02-01T19:50:30;10.20;;;2.90;;
75165;SDS011;63747;48.042;10.088;2023-02-01T19:53:30;9.13;;;3.70;;
75165;SDS011;63747;48.042;10.088;2023-02-01T19:56:31;12.90;;;3.03;;
75165;SDS011;63747;48.042;10.088;2023-02-01T19:59:32;14.18;;;3.08;;
75165;SDS011;63747;48.042;10.088;2023-02-01T20:02:33;12.83;;;3.17;;
75165;SDS011;63747;48.042;10.088;2023-02-01T20:05:33;11.30;;;3.17;;
75165;SDS011;63747;48.042;10.088;2023-02-01T20:08:34;11.30;;;2.67;;
75165;SDS011;63747;48.042;10.088;2023-02-01T20:11:35;11.50;;;2.57;;
75165;SDS011;63747;48.042;10.088;2023-02-01T20:14:36;13.10;;;2.83;;
75165;SDS011;63747;48.042;10.088;2023-02-01T20:17:37;11.00;;;2.67;;
75165;SDS011;63747;48.042;10.088;2023-02-01T20:20:39;10.47;;;2.67;;
75165;SDS011;63747;48.042;10.088;2023-02-01T20:23:41;11.80;;;5.00;;
75165;SDS011;63747;48.042;10.088;2023-02-01T20:26:42;11.77;;;3.53;;
75165;SDS011;63747;48.042;10.088;2023-02-01T20:29:44;8.65;;;2.25;;
75165;SDS011;63747;48.042;10.088;2023-02-01T20:32:45;13.00;;;3.00;;